createdAt,value
2022-09-07T00:02:39.699Z,2.67
2022-09-07T00:05:46.428Z,2.57
2022-09-07T00:08:48.404Z,3.10
2022-09-07T00:11:50.384Z,2.40
2022-09-07T00:14:52.433Z,2.47
2022-09-07T00:17:54.308Z,2.80
2022-09-07T00:21:09.078Z,2.93
2022-09-07T00:24:11.075Z,2.23
2022-09-07T00:27:14.003Z,2.60
2022-09-07T00:30:16.093Z,2.73
2022-09-07T00:33:18.030Z,2.90
2022-09-07T00:36:21.658Z,2.93
2022-09-07T00:39:23.615Z,2.83
2022-09-07T00:42:25.613Z,2.63
2022-09-07T00:45:27.793Z,2.53
2022-09-07T00:48:57.173Z,2.80
2022-09-07T00:52:02.029Z,2.30
2022-09-07T00:55:08.554Z,3.00
2022-09-07T00:58:11.348Z,2.53
2022-09-07T01:01:14.279Z,2.57
2022-09-07T01:04:16.786Z,2.50
2022-09-07T01:07:19.553Z,2.40
2022-09-07T01:10:24.408Z,3.10
2022-09-07T01:13:27.575Z,2.43
2022-09-07T01:16:40.963Z,2.93
2022-09-07T01:20:18.343Z,2.63
2022-09-07T01:23:29.384Z,2.07
2022-09-07T01:27:08.699Z,2.50
2022-09-07T01:30:15.393Z,2.17
2022-09-07T01:33:35.889Z,3.33
2022-09-07T01:37:08.248Z,2.70
2022-09-07T01:40:44.280Z,2.50
2022-09-07T01:44:06.838Z,2.20
2022-09-07T01:47:14.288Z,2.30
2022-09-07T01:50:45.250Z,2.30
2022-09-07T01:53:51.050Z,2.33
2022-09-07T01:56:57.563Z,2.47
2022-09-07T02:00:06.839Z,2.60
2022-09-07T02:03:15.839Z,2.40
2022-09-07T02:06:22.274Z,1.90
2022-09-07T02:09:40.374Z,2.10
2022-09-07T02:12:53.400Z,2.20
2022-09-07T02:16:01.026Z,2.03
2022-09-07T02:19:10.473Z,2.03
2022-09-07T02:22:16.565Z,2.00
2022-09-07T02:25:24.613Z,1.90
2022-09-07T02:28:33.603Z,2.20
2022-09-07T02:31:35.712Z,1.93
2022-09-07T02:34:37.928Z,2.20
2022-09-07T02:37:42.343Z,2.60
2022-09-07T02:40:44.513Z,2.20
2022-09-07T02:43:46.463Z,2.17
2022-09-07T02:47:13.341Z,1.90
2022-09-07T02:50:37.703Z,2.17
2022-09-07T02:54:05.600Z,1.90
2022-09-07T02:57:14.424Z,2.10
2022-09-07T03:00:21.083Z,1.87
2022-09-07T03:03:32.378Z,1.70
2022-09-07T03:07:03.643Z,1.80
2022-09-07T03:10:07.091Z,2.20
2022-09-07T03:13:09.281Z,1.90
2022-09-07T03:16:15.318Z,1.70
2022-09-07T03:19:17.763Z,2.10
2022-09-07T03:22:20.053Z,1.90
2022-09-07T03:25:23.344Z,1.87
2022-09-07T03:28:25.393Z,1.73
2022-09-07T03:31:27.423Z,2.00
2022-09-07T03:34:29.423Z,1.90
2022-09-07T03:37:31.982Z,1.83
2022-09-07T03:40:34.139Z,1.90
2022-09-07T03:43:36.258Z,1.70
2022-09-07T03:46:38.139Z,1.70
2022-09-07T03:49:40.108Z,1.70
2022-09-07T03:52:42.253Z,1.90
2022-09-07T03:55:44.198Z,2.00
2022-09-07T03:58:47.229Z,1.50
2022-09-07T04:01:49.196Z,1.93
2022-09-07T04:04:51.183Z,1.60
2022-09-07T04:07:53.624Z,1.87
2022-09-07T04:11:03.309Z,1.40
2022-09-07T04:14:05.843Z,1.50
2022-09-07T04:17:07.854Z,1.70
2022-09-07T04:20:10.143Z,1.70
2022-09-07T04:23:12.523Z,1.50
2022-09-07T04:26:17.898Z,1.87
2022-09-07T04:29:19.839Z,1.60
2022-09-07T04:32:21.880Z,1.50
2022-09-07T04:35:23.748Z,1.57
2022-09-07T04:38:26.331Z,1.80
2022-09-07T04:41:29.663Z,1.60
2022-09-07T04:44:31.623Z,1.70
2022-09-07T04:47:33.518Z,1.57
2022-09-07T04:50:35.583Z,2.00
2022-09-07T04:53:38.678Z,1.60
2022-09-07T04:56:40.604Z,1.63
2022-09-07T04:59:42.579Z,1.50
2022-09-07T05:02:44.968Z,1.60
2022-09-07T05:05:47.124Z,1.30
2022-09-07T05:08:51.576Z,2.30
2022-09-07T05:11:53.588Z,1.40
2022-09-07T05:14:55.584Z,1.50
2022-09-07T05:18:00.493Z,1.57
2022-09-07T05:21:13.623Z,1.47
2022-09-07T05:24:15.498Z,1.70
2022-09-07T05:27:17.558Z,1.40
2022-09-07T05:37:10.883Z,1.60
2022-09-07T05:40:13.060Z,1.60
2022-09-07T05:43:15.067Z,1.30
2022-09-07T05:46:17.908Z,1.77
2022-09-07T05:49:19.858Z,2.07
2022-09-07T05:52:21.963Z,1.50
2022-09-07T05:55:30.953Z,2.00
2022-09-07T05:58:34.118Z,2.03
2022-09-07T06:01:36.178Z,1.77
2022-09-07T06:04:38.130Z,1.50
2022-09-07T06:07:40.554Z,2.23
2022-09-07T06:13:49.778Z,1.50
2022-09-07T06:16:51.817Z,1.42
2022-09-07T06:19:55.197Z,1.50
2022-09-07T06:22:57.199Z,1.40
2022-09-07T06:25:59.863Z,1.50
2022-09-07T06:29:04.089Z,1.20
2022-09-07T06:35:28.122Z,1.52
2022-09-07T06:38:32.113Z,1.48
2022-09-07T06:44:59.076Z,1.38
2022-09-07T06:48:01.305Z,1.80
2022-09-07T06:51:10.150Z,1.38
2022-09-07T06:57:34.509Z,1.63
2022-09-07T07:00:36.496Z,1.33
2022-09-07T07:03:38.693Z,1.48
2022-09-07T07:06:41.180Z,1.30
2022-09-07T07:09:43.463Z,1.60
2022-09-07T07:15:46.818Z,1.23
2022-09-07T07:18:52.858Z,2.13
2022-09-07T07:25:17.020Z,1.40
2022-09-07T07:31:40.949Z,1.40
2022-09-07T07:34:42.899Z,1.23
2022-09-07T07:37:45.021Z,1.83
2022-09-07T07:44:16.426Z,1.67
2022-09-07T07:47:18.704Z,2.08
2022-09-07T07:50:31.229Z,1.40
2022-09-07T07:53:41.587Z,1.50
2022-09-07T07:56:44.054Z,1.80
2022-09-07T07:59:46.233Z,2.00
2022-09-07T08:02:48.117Z,2.00
2022-09-07T08:05:50.747Z,1.60
2022-09-07T08:08:52.644Z,1.70
2022-09-07T08:11:55.444Z,1.73
2022-09-07T08:14:57.325Z,1.40
2022-09-07T08:17:59.264Z,1.60
2022-09-07T08:21:06.700Z,1.52
2022-09-07T08:24:09.380Z,1.42
2022-09-07T08:27:11.305Z,2.05
2022-09-07T08:30:13.538Z,1.73
2022-09-07T08:33:16.574Z,1.42
2022-09-07T08:36:20.997Z,1.60
2022-09-07T08:39:22.915Z,1.38
2022-09-07T08:42:40.722Z,1.30
2022-09-07T08:45:52.148Z,1.77
2022-09-07T08:48:55.648Z,1.90
2022-09-07T08:52:25.325Z,2.08
2022-09-07T08:55:43.705Z,1.50
2022-09-07T08:58:55.813Z,1.60
2022-09-07T09:05:35.017Z,1.35
2022-09-07T09:08:55.811Z,1.27
2022-09-07T09:12:22.513Z,1.58
2022-09-07T09:15:34.753Z,1.60
2022-09-07T09:19:12.336Z,1.50
2022-09-07T09:22:21.933Z,1.40
2022-09-07T09:25:34.245Z,1.20
2022-09-07T09:28:36.428Z,1.25
2022-09-07T09:31:38.744Z,1.05
2022-09-07T09:34:41.034Z,1.60
2022-09-07T09:37:44.000Z,1.08
2022-09-07T09:40:52.014Z,1.30
2022-09-07T09:43:58.458Z,1.23
2022-09-07T09:53:58.474Z,1.67
2022-09-07T09:57:00.933Z,1.05
2022-09-07T10:00:08.698Z,1.50
2022-09-07T10:06:35.563Z,1.38
2022-09-07T10:09:40.718Z,1.10
2022-09-07T10:12:43.244Z,1.00
2022-09-07T10:15:51.520Z,0.90
2022-09-07T10:19:00.235Z,1.05
2022-09-07T10:22:21.054Z,0.93
2022-09-07T10:25:40.171Z,0.90
2022-09-07T10:32:10.209Z,0.93
2022-09-07T10:35:24.014Z,0.65
2022-09-07T10:38:27.835Z,0.90
2022-09-07T10:41:39.005Z,1.08
2022-09-07T10:44:57.220Z,0.60
2022-09-07T10:48:26.719Z,1.05
2022-09-07T10:52:03.918Z,1.23
2022-09-07T10:55:26.567Z,1.10
2022-09-07T10:59:08.637Z,1.10
2022-09-07T11:02:14.254Z,1.10
2022-09-07T11:05:36.045Z,1.10
2022-09-07T11:09:19.340Z,1.30
2022-09-07T11:12:38.255Z,1.30
2022-09-07T11:15:58.799Z,2.05
2022-09-07T11:22:36.023Z,1.23
2022-09-07T11:25:46.705Z,1.10
2022-09-07T11:32:38.114Z,1.08
2022-09-07T11:36:02.663Z,1.10
2022-09-07T11:39:11.934Z,1.20
2022-09-07T11:42:45.465Z,1.40
2022-09-07T11:46:08.259Z,1.00
2022-09-07T11:49:19.559Z,1.10
2022-09-07T11:52:54.413Z,1.08
2022-09-07T11:56:02.040Z,1.38
2022-09-07T11:59:38.063Z,1.20
2022-09-07T12:03:00.157Z,1.25
2022-09-07T12:06:20.929Z,1.10
2022-09-07T12:09:25.853Z,1.40
2022-09-07T12:12:56.853Z,1.30
2022-09-07T12:15:59.102Z,1.40
2022-09-07T12:19:07.805Z,1.17
2022-09-07T12:22:22.820Z,1.30
2022-09-07T12:25:25.912Z,1.30
2022-09-07T12:28:37.104Z,1.40
2022-09-07T12:31:58.372Z,1.08
2022-09-07T12:35:02.758Z,1.23
2022-09-07T12:38:30.775Z,1.02
2022-09-07T12:41:47.868Z,1.27
2022-09-07T12:45:28.448Z,1.05
2022-09-07T12:48:44.524Z,1.38
2022-09-07T12:52:15.937Z,1.50
2022-09-07T12:56:15.148Z,1.50
2022-09-07T12:59:20.120Z,1.20
2022-09-07T13:02:35.984Z,1.60
2022-09-07T13:06:10.903Z,1.30
2022-09-07T13:09:30.969Z,1.23
2022-09-07T13:16:07.209Z,1.33
2022-09-07T13:19:14.753Z,1.60
2022-09-07T13:22:35.429Z,1.23
2022-09-07T13:25:37.294Z,1.20
2022-09-07T13:28:52.999Z,1.45
2022-09-07T13:35:58.734Z,1.33
2022-09-07T13:39:00.733Z,1.40
2022-09-07T13:42:03.698Z,1.40
2022-09-07T13:45:07.821Z,1.30
2022-09-07T13:48:31.270Z,1.33
2022-09-07T13:51:44.218Z,1.65
2022-09-07T13:54:56.496Z,1.42
2022-09-07T13:58:01.133Z,1.52
2022-09-07T14:01:07.273Z,1.10
2022-09-07T14:04:23.351Z,1.20
2022-09-07T14:07:27.243Z,1.40
2022-09-07T14:10:29.353Z,1.25
2022-09-07T14:13:31.353Z,1.00
2022-09-07T14:16:34.426Z,1.23
2022-09-07T14:19:40.328Z,1.20
2022-09-07T14:22:43.263Z,1.10
2022-09-07T14:29:22.709Z,1.10
2022-09-07T14:32:25.500Z,1.30
2022-09-07T14:35:32.033Z,1.40
2022-09-07T14:41:58.921Z,1.38
2022-09-07T14:45:22.938Z,1.55
2022-09-07T14:48:32.381Z,1.20
2022-09-07T14:51:36.835Z,1.00
2022-09-07T14:54:38.978Z,1.20
2022-09-07T14:57:41.363Z,1.13
2022-09-07T15:01:37.141Z,4.93
2022-09-07T15:04:20.510Z,1.45
2022-09-07T15:07:42.113Z,1.70
2022-09-07T15:11:32.937Z,1.67
2022-09-07T15:14:15.293Z,1.75
2022-09-07T15:17:43.383Z,1.30
2022-09-07T15:20:45.744Z,2.17
2022-09-07T15:23:53.040Z,1.83
2022-09-07T15:27:02.580Z,1.73
2022-09-07T15:30:05.368Z,2.17
2022-09-07T15:33:07.188Z,3.10
2022-09-07T15:36:14.304Z,3.67
2022-09-07T15:39:25.204Z,2.35
2022-09-07T15:45:51.234Z,2.67
2022-09-07T15:48:55.579Z,3.25
2022-09-07T15:52:05.407Z,2.90
2022-09-07T15:55:09.040Z,1.80
2022-09-07T15:58:12.537Z,1.63
2022-09-07T16:04:38.780Z,2.20
2022-09-07T16:11:23.828Z,1.48
2022-09-07T16:14:26.248Z,1.58
2022-09-07T16:17:35.674Z,1.52
2022-09-07T16:20:41.196Z,1.80
2022-09-07T16:23:45.543Z,1.90
2022-09-07T16:26:47.758Z,1.70
2022-09-07T16:29:49.676Z,1.50
2022-09-07T16:32:51.700Z,1.33
2022-09-07T16:35:59.495Z,1.50
2022-09-07T16:39:02.784Z,1.40
2022-09-07T16:42:05.493Z,1.58
2022-09-07T16:48:31.763Z,1.58
2022-09-07T16:51:34.974Z,1.80
2022-09-07T16:54:37.265Z,1.65
2022-09-07T17:01:02.755Z,1.80
2022-09-07T17:04:09.806Z,1.95
2022-09-07T17:07:12.961Z,1.90
2022-09-07T17:10:15.713Z,2.28
2022-09-07T17:13:18.308Z,1.50
2022-09-07T17:16:23.601Z,2.13
2022-09-07T17:19:32.916Z,1.90
2022-09-07T17:22:35.254Z,1.50
2022-09-07T17:25:38.121Z,1.88
2022-09-07T17:28:44.076Z,1.70
2022-09-07T17:35:09.178Z,1.85
2022-09-07T17:41:34.586Z,1.60
2022-09-07T17:44:38.420Z,1.60
2022-09-07T17:47:40.575Z,2.00
2022-09-07T17:50:42.785Z,2.00
2022-09-07T17:53:46.017Z,1.70
2022-09-07T17:56:48.002Z,1.92
2022-09-07T18:03:15.734Z,1.80
2022-09-07T18:06:19.488Z,1.65
2022-09-07T18:09:21.987Z,1.65
2022-09-07T18:12:24.084Z,1.90
2022-09-07T18:15:26.059Z,1.98
2022-09-07T18:18:28.724Z,1.73
2022-09-07T18:21:33.145Z,2.63
2022-09-07T18:24:36.960Z,1.95
2022-09-07T18:27:39.713Z,1.67
2022-09-07T18:30:43.319Z,1.70
2022-09-07T18:33:45.379Z,1.60
2022-09-07T18:36:47.540Z,1.80
2022-09-07T18:39:49.829Z,1.80
2022-09-07T18:42:52.580Z,1.40
2022-09-07T18:46:06.505Z,1.90
2022-09-07T18:49:12.278Z,1.80
2022-09-07T18:55:36.579Z,1.75
2022-09-07T18:58:38.487Z,2.03
2022-09-07T19:01:40.502Z,1.80
2022-09-07T19:08:07.803Z,1.42
2022-09-07T19:11:12.682Z,1.85
2022-09-07T19:14:15.003Z,1.58
2022-09-07T19:17:18.047Z,1.85
2022-09-07T19:20:20.255Z,1.77
2022-09-07T19:23:22.369Z,2.10
2022-09-07T19:26:25.859Z,2.20
2022-09-07T19:29:28.054Z,2.33
2022-09-07T19:32:30.178Z,2.08
2022-09-07T19:35:35.600Z,1.50
2022-09-07T19:38:37.576Z,1.70
2022-09-07T19:41:42.620Z,1.60
2022-09-07T19:44:44.860Z,1.70
2022-09-07T19:47:46.800Z,1.55
2022-09-07T19:50:50.689Z,1.60
2022-09-07T19:53:52.605Z,1.80
2022-09-07T19:56:54.501Z,1.75
2022-09-07T19:59:57.533Z,1.92
2022-09-07T20:02:59.683Z,1.92
2022-09-07T20:06:06.224Z,2.15
2022-09-07T20:09:08.540Z,2.25
2022-09-07T20:12:10.424Z,1.95
2022-09-07T20:15:13.039Z,1.73
2022-09-07T20:18:14.946Z,1.50
2022-09-07T20:21:19.654Z,1.80
2022-09-07T20:24:22.670Z,1.20
2022-09-07T20:27:26.167Z,1.60
2022-09-07T20:30:30.400Z,1.45
2022-09-07T20:33:34.903Z,1.70
2022-09-07T20:36:36.797Z,1.50
2022-09-07T20:39:39.662Z,1.90
2022-09-07T20:42:41.744Z,1.55
2022-09-07T20:45:43.769Z,1.80
2022-09-07T20:48:45.927Z,2.05
2022-09-07T20:51:47.844Z,1.52
2022-09-07T20:54:49.710Z,1.70
2022-09-07T20:57:54.706Z,1.65
2022-09-07T21:00:56.863Z,2.17
2022-09-07T21:04:00.807Z,1.33
2022-09-07T21:07:03.366Z,1.73
2022-09-07T21:10:06.978Z,2.95
2022-09-07T21:13:09.278Z,1.90
2022-09-07T21:16:15.843Z,2.03
2022-09-07T21:19:17.928Z,2.33
2022-09-07T21:22:19.825Z,2.00
2022-09-07T21:25:21.681Z,2.47
2022-09-07T21:28:24.536Z,1.77
2022-09-07T21:31:27.544Z,2.10
2022-09-07T21:34:29.567Z,2.03
2022-09-07T21:37:31.875Z,2.28
2022-09-07T21:40:33.862Z,2.33
2022-09-07T21:43:35.888Z,2.53
2022-09-07T21:46:37.890Z,2.58
2022-09-07T21:49:39.959Z,2.38
2022-09-07T21:52:42.069Z,2.47
2022-09-07T21:55:44.039Z,1.95
2022-09-07T21:58:46.039Z,1.75
2022-09-07T22:01:49.255Z,2.05
2022-09-07T22:04:51.316Z,3.15
2022-09-07T22:07:53.514Z,2.10
2022-09-07T22:10:55.974Z,2.30
2022-09-07T22:14:02.907Z,2.20
2022-09-07T22:17:04.829Z,2.47
2022-09-07T22:20:07.255Z,2.20
2022-09-07T22:23:09.254Z,2.10
2022-09-07T22:26:14.555Z,2.37
2022-09-07T22:29:16.844Z,2.57
2022-09-07T22:32:18.675Z,2.73
2022-09-07T22:35:21.634Z,2.08
2022-09-07T22:38:23.479Z,2.60
2022-09-07T22:41:27.772Z,2.50
2022-09-07T22:44:30.194Z,2.58
2022-09-07T22:47:32.606Z,2.40
2022-09-07T22:50:34.460Z,2.33
2022-09-07T22:53:37.850Z,2.50
2022-09-07T22:56:40.018Z,2.27
2022-09-07T22:59:42.065Z,2.40
2022-09-07T23:02:44.554Z,2.10
2022-09-07T23:05:47.534Z,1.93
2022-09-07T23:08:50.760Z,2.23
2022-09-07T23:11:53.049Z,2.27
2022-09-07T23:14:54.991Z,2.10
2022-09-07T23:17:58.106Z,2.50
2022-09-07T23:21:00.980Z,2.43
2022-09-07T23:24:03.778Z,2.80
2022-09-07T23:27:05.701Z,2.37
2022-09-07T23:30:08.822Z,1.97
2022-09-07T23:33:10.635Z,2.87
2022-09-07T23:36:12.600Z,1.90
2022-09-07T23:39:14.528Z,2.13
2022-09-07T23:42:16.521Z,2.73
2022-09-07T23:45:18.414Z,2.03
2022-09-07T23:48:20.371Z,2.20
2022-09-07T23:51:24.444Z,2.10
2022-09-07T23:54:27.063Z,1.93
2022-09-07T23:57:29.033Z,1.80
